Pagrindinis puslapis
METAR-TAF:

METAR-TAF

Oro uostai :

Langkavis, Malaizija

platuma: 06-20N, ilguma: 099-44E, Aukštis: 8 m

Dabartinis oras

Ataskaita buvo paskelbta 1 valandą ir 9 minutes, ne 04:00 UTC
Vėjas 10 kt iš Rytų/Šiaurės Rytų, svyruoja nuo Šiaurės ir Rytų/Pietryčių
Temperatūra 34°C
Drėgmė 50%
Slėgis 1010 hPa
Matomumas 10 km arba daugiau
nėra debesų žemiau 1500 m ir nėra kamuolinių lietaus debesų

METAR: WMKL 290400Z 06010KT 350V110 CAVOK 34/22 Q1010

Laikas: 13:09 (05:09 UTC)

Prognozė

Ataskaita buvo paskelbta 6 valandos ir 9 minutes, ne 23:00 UTC
Prognozė galioja nuo 29 metu 00 UTC su 01 metu 00 UTC
Vėjas 6 kt iš Šiaurės/Šiaurės Rytų
Matomumas 10 km arba daugiau
Mažai debesys ne aukštis 2200 ft
Tapsmas
nuo 29 metu 05 UTC su 29 metu 07 UTC
Vėjas 6 kt iš Pietvakarių
Tapsmas
nuo 29 metu 11 UTC su 29 metu 13 UTC
Vėjas 6 kt iš Šiaurės/Šiaurės Rytų
Mažai debesys ne aukštis 2600 ft

TAF: WMKL 282300Z 2900/0100 03006KT 9999 FEW022 BECMG 2905/2907 23006KT BECMG 2911/2913 03006KT FEW026

Orai ataskaitas ir orų prognozės (METAR, TAF).

turimą stotys yra geltonos ir raudonos taškus žemėlapyje.

Perkelti pele per norėdami pamatyti stoties vardą.

Tada spustelėkite, norėdami matyti oro stebėjimo ir prognozės.

Norėdami pakeisti žemėlapį: spustelėkite ant žalios mygtukų su juodo kryžiaus žemyn,; žalią mygtuką su brūkšneliu, jei norite nutolinti; arba žalių rodyklių gretimoms žemėlapius.


METAR-TAF: